Terminal Aerodrome Forecast
Issued by NWS

Home | Current Version | Previous Version | Text Only | Print | Product List | Glossary On
Versions: 1 2 3 4 5 6 7 8 9 10 11 12 13 14 15 16 17 18 19 20 21 22 23 24 25 26 27
000
FTUS41 KOKX 280235 AAA
TAFSWF
TAF AMD
KSWF 280235Z 2803/2906 00000KT P6SM SCT040
     FM280400 00000KT 1SM BR OVC003
     FM280600 00000KT 1/4SM FG VV002
     FM280800 00000KT 1/2SM FG OVC002
      TEMPO 2808/2812 VRB03KT 1SM -RA BR OVC003
     FM281500 VRB04KT 2SM BR OVC006
     FM290000 VRB03KT 2SM -RA BR OVC006
      AMD NOT SKED=

USA.gov is the U.S. government's official web portal to all federal, state and local government web resources and services.